createdAt,value
2018-12-13T00:01:10.598Z,15.53
2018-12-13T00:07:16.189Z,15.70
2018-12-13T00:13:20.926Z,16.07
2018-12-13T00:19:25.857Z,16.00
2018-12-13T00:25:30.735Z,16.60
2018-12-13T00:31:35.463Z,17.23
2018-12-13T00:37:40.224Z,17.57
2018-12-13T00:43:45.069Z,16.07
2018-12-13T00:49:49.862Z,16.50
2018-12-13T00:55:54.641Z,17.40
2018-12-13T01:01:59.849Z,16.80
2018-12-13T01:08:04.726Z,16.97
2018-12-13T01:14:09.602Z,16.37
2018-12-13T01:20:14.498Z,17.63
2018-12-13T01:26:19.945Z,16.83
2018-12-13T01:32:24.832Z,15.53
2018-12-13T01:38:29.560Z,16.33
2018-12-13T01:44:34.282Z,16.43
2018-12-13T01:50:39.827Z,16.20
2018-12-13T01:56:44.691Z,16.33
2018-12-13T02:02:49.380Z,16.40
2018-12-13T02:08:54.172Z,16.07
2018-12-13T02:14:58.994Z,17.47
2018-12-13T02:21:03.953Z,16.67
2018-12-13T02:27:08.799Z,17.67
2018-12-13T02:33:13.651Z,17.60
2018-12-13T02:39:18.788Z,16.83
2018-12-13T02:45:23.536Z,17.83
2018-12-13T02:51:28.219Z,18.10
2018-12-13T02:57:33.223Z,17.10
2018-12-13T03:03:38.549Z,17.40
2018-12-13T03:09:43.496Z,16.30
2018-12-13T03:15:48.211Z,17.27
2018-12-13T03:21:53.213Z,15.07
2018-12-13T03:27:58.170Z,17.53
2018-12-13T03:34:03.743Z,17.17
2018-12-13T03:40:09.454Z,18.67
2018-12-13T03:46:14.208Z,18.00
2018-12-13T03:52:19.067Z,18.67
2018-12-13T03:58:25.063Z,19.87
2018-12-13T04:04:30.116Z,18.77
2018-12-13T04:10:34.947Z,18.80
2018-12-13T04:16:40.283Z,18.50
2018-12-13T04:22:45.278Z,18.27
2018-12-13T04:28:50.019Z,17.63
2018-12-13T04:34:55.359Z,17.97
2018-12-13T04:41:00.245Z,17.43
2018-12-13T04:47:05.419Z,18.17
2018-12-13T04:53:10.246Z,21.57
2018-12-13T04:59:15.291Z,18.30
2018-12-13T05:05:20.211Z,19.20
2018-12-13T05:11:24.897Z,18.37
2018-12-13T05:17:30.320Z,18.70
2018-12-13T05:23:52.574Z,17.43
2018-12-13T05:29:57.600Z,18.33
2018-12-13T05:36:02.571Z,17.20
2018-12-13T05:42:08.092Z,17.47
2018-12-13T05:48:12.965Z,15.97
2018-12-13T05:54:17.877Z,15.50
2018-12-13T06:00:22.614Z,15.30
2018-12-13T06:06:27.408Z,16.50
2018-12-13T06:12:32.110Z,16.77
2018-12-13T06:18:36.928Z,15.73
2018-12-13T06:24:42.020Z,15.73
2018-12-13T06:30:47.032Z,14.57
2018-12-13T06:36:51.794Z,14.30
2018-12-13T06:42:56.589Z,15.33
2018-12-13T06:49:01.515Z,13.47
2018-12-13T06:55:06.652Z,13.87
2018-12-13T07:01:12.105Z,14.20
2018-12-13T07:07:16.866Z,13.03
2018-12-13T07:13:21.580Z,13.13
2018-12-13T07:19:26.891Z,13.53
2018-12-13T07:25:32.099Z,14.17
2018-12-13T07:31:37.625Z,13.37
2018-12-13T07:37:42.414Z,13.37
2018-12-13T07:43:47.330Z,13.07
2018-12-13T07:49:52.047Z,13.20
2018-12-13T07:55:56.838Z,12.87
2018-12-13T08:02:01.550Z,12.70
2018-12-13T08:08:06.359Z,12.70
2018-12-13T08:14:11.127Z,13.07
2018-12-13T08:20:15.870Z,12.70
2018-12-13T08:26:20.703Z,11.90
2018-12-13T08:32:25.436Z,12.97
2018-12-13T08:38:30.226Z,15.73
2018-12-13T08:44:34.954Z,16.10
2018-12-13T08:50:39.734Z,12.77
2018-12-13T08:56:44.850Z,13.70
2018-12-13T09:02:49.620Z,12.90
2018-12-13T09:08:54.437Z,13.40
2018-12-13T09:14:59.484Z,12.90
2018-12-13T09:21:05.390Z,12.80
2018-12-13T09:27:10.584Z,12.47
2018-12-13T09:33:15.469Z,15.53
2018-12-13T09:39:20.519Z,12.87
2018-12-13T09:45:25.417Z,11.67
2018-12-13T09:51:30.179Z,12.20
2018-12-13T09:57:36.509Z,11.67
2018-12-13T10:03:41.709Z,11.20
2018-12-13T10:09:46.581Z,10.63
2018-12-13T10:15:51.414Z,10.63
2018-12-13T10:21:56.128Z,10.63
2018-12-13T10:28:01.108Z,9.73
2018-12-13T10:34:05.880Z,10.37
2018-12-13T10:40:10.821Z,10.20
2018-12-13T10:46:15.982Z,10.00
2018-12-13T10:52:20.927Z,10.40
2018-12-13T10:58:25.782Z,9.33
2018-12-13T11:04:31.078Z,9.37
2018-12-13T11:10:42.673Z,10.40
2018-12-13T11:16:47.635Z,10.80
2018-12-13T11:22:52.832Z,9.43
2018-12-13T11:30:39.609Z,9.40
2018-12-13T11:36:44.869Z,8.53
2018-12-13T11:42:49.720Z,9.13
2018-12-13T11:48:54.612Z,13.33
2018-12-13T11:55:03.928Z,10.33
2018-12-13T12:01:08.865Z,10.03
2018-12-13T12:07:13.693Z,9.93
2018-12-13T12:13:18.524Z,9.67
2018-12-13T12:19:23.400Z,10.43
2018-12-13T12:25:28.154Z,9.13
2018-12-13T12:31:32.869Z,10.23
2018-12-13T12:37:37.611Z,10.43
2018-12-13T12:43:42.345Z,9.77
2018-12-13T12:49:47.217Z,9.80
2018-12-13T12:55:51.948Z,10.73
2018-12-13T13:01:56.663Z,11.70
2018-12-13T13:08:01.544Z,10.83
2018-12-13T13:14:06.342Z,11.10
2018-12-13T13:20:11.667Z,10.50
2018-12-13T13:26:16.996Z,11.97
2018-12-13T13:32:21.719Z,9.40
2018-12-13T13:38:26.585Z,10.63
2018-12-13T13:44:37.452Z,10.33
2018-12-13T13:50:42.789Z,13.07
2018-12-13T13:56:47.583Z,9.90
2018-12-13T14:02:52.455Z,10.87
2018-12-13T14:08:57.243Z,10.47
2018-12-13T14:15:02.005Z,10.47
2018-12-13T14:21:06.842Z,11.27
2018-12-13T14:27:11.935Z,10.77
2018-12-13T14:33:16.679Z,11.83
2018-12-13T14:39:21.675Z,11.33
2018-12-13T14:45:26.418Z,11.10
2018-12-13T14:51:31.140Z,11.47
2018-12-13T14:57:36.066Z,11.73
2018-12-13T15:03:41.029Z,11.33
2018-12-13T15:09:50.802Z,11.77
2018-12-13T15:15:52.862Z,10.60
2018-12-13T15:21:57.682Z,11.70
2018-12-13T15:28:02.652Z,11.63
2018-12-13T15:34:07.673Z,10.40
2018-12-13T15:40:12.744Z,11.17
2018-12-13T15:46:18.185Z,12.43
2018-12-13T15:52:22.966Z,11.60
2018-12-13T15:58:27.816Z,12.20
2018-12-13T16:04:32.686Z,12.50
2018-12-13T16:10:37.578Z,12.73
2018-12-13T16:16:42.379Z,12.00
2018-12-13T16:22:47.548Z,12.50
2018-12-13T16:28:52.314Z,12.27
2018-12-13T16:34:57.100Z,13.03
2018-12-13T16:41:01.859Z,13.03
2018-12-13T16:47:06.737Z,12.33
2018-12-13T16:53:11.489Z,13.23
2018-12-13T16:59:16.315Z,13.17
2018-12-13T17:05:21.160Z,13.50
2018-12-13T17:11:25.999Z,13.77
2018-12-13T17:17:30.802Z,13.20
2018-12-13T17:23:35.872Z,13.43
2018-12-13T17:29:40.592Z,13.43
2018-12-13T17:35:45.365Z,14.60
2018-12-13T17:41:50.368Z,13.60
2018-12-13T17:47:55.634Z,13.77
2018-12-13T17:54:00.474Z,12.87
2018-12-13T18:00:07.197Z,13.80
2018-12-13T18:06:12.033Z,12.83
2018-12-13T18:12:16.862Z,13.17
2018-12-13T18:18:21.694Z,12.73
2018-12-13T18:24:26.642Z,12.10
2018-12-13T18:30:31.538Z,16.23
2018-12-13T18:36:36.482Z,13.93
2018-12-13T18:42:41.504Z,12.47
2018-12-13T18:48:46.250Z,12.63
2018-12-13T18:54:51.050Z,11.87
2018-12-13T19:00:55.851Z,12.77
2018-12-13T19:07:00.720Z,10.70
2018-12-13T19:13:05.590Z,10.77
2018-12-13T19:19:10.356Z,10.73
2018-12-13T19:25:15.122Z,10.07
2018-12-13T19:31:20.161Z,10.43
2018-12-13T19:37:24.994Z,10.20
2018-12-13T19:43:33.815Z,10.40
2018-12-13T19:49:38.758Z,10.33
2018-12-13T19:55:43.578Z,11.17
2018-12-13T20:01:48.529Z,10.70
2018-12-13T20:07:53.316Z,12.27
2018-12-13T20:13:58.218Z,11.50
2018-12-13T20:20:03.308Z,13.27
2018-12-13T20:26:08.109Z,11.67
2018-12-13T20:32:12.864Z,12.50
2018-12-13T20:38:17.667Z,12.70
2018-12-13T20:44:22.739Z,12.03
2018-12-13T20:50:27.532Z,12.70
2018-12-13T20:56:32.344Z,12.40
2018-12-13T21:02:37.106Z,12.63
2018-12-13T21:08:41.847Z,14.00
2018-12-13T21:14:53.188Z,13.93
2018-12-13T21:20:57.989Z,14.67
2018-12-13T21:27:02.942Z,19.73
2018-12-13T21:33:07.785Z,19.13
2018-12-13T21:39:12.633Z,19.93
2018-12-13T21:45:17.389Z,19.07
2018-12-13T21:51:22.248Z,19.20
2018-12-13T21:57:27.191Z,20.20
2018-12-13T22:03:32.043Z,19.50
2018-12-13T22:09:36.831Z,18.90
2018-12-13T22:15:41.643Z,18.07
2018-12-13T22:21:46.523Z,18.97
2018-12-13T22:27:51.309Z,17.53
2018-12-13T22:33:56.210Z,18.40
2018-12-13T22:40:00.935Z,18.10
2018-12-13T22:46:06.153Z,19.30
2018-12-13T22:52:11.025Z,19.67
2018-12-13T22:58:15.751Z,17.07
2018-12-13T23:04:20.470Z,17.90
2018-12-13T23:10:25.156Z,17.03
2018-12-13T23:16:30.231Z,17.83
2018-12-13T23:22:34.903Z,18.77
2018-12-13T23:28:39.742Z,19.13
2018-12-13T23:34:44.538Z,19.57
2018-12-13T23:40:49.458Z,19.13
2018-12-13T23:46:54.255Z,18.93
2018-12-13T23:52:58.954Z,19.63
2018-12-13T23:59:03.775Z,20.43
